sensor_id;sensor_type;location;lat;lon;timestamp;temperature;humidity
73570;SHT30;61850;54.980;73.298;2023-01-24T00:00:58;-4.46;84.64
73570;SHT30;61850;54.980;73.298;2023-01-24T00:03:29;-4.48;84.70
73570;SHT30;61850;54.980;73.298;2023-01-24T00:06:02;-4.50;84.86
73570;SHT30;61850;54.980;73.298;2023-01-24T00:08:38;-4.54;84.87
73570;SHT30;61850;54.980;73.298;2023-01-24T00:11:08;-4.56;84.82
73570;SHT30;61850;54.980;73.298;2023-01-24T00:13:34;-4.53;84.83
73570;SHT30;61850;54.980;73.298;2023-01-24T00:16:07;-4.54;84.78
73570;SHT30;61850;54.980;73.298;2023-01-24T00:18:33;-4.53;84.84
73570;SHT30;61850;54.980;73.298;2023-01-24T00:21:04;-4.54;84.99
73570;SHT30;61850;54.980;73.298;2023-01-24T00:23:31;-4.57;85.08
73570;SHT30;61850;54.980;73.298;2023-01-24T00:26:06;-4.56;84.99
73570;SHT30;61850;54.980;73.298;2023-01-24T00:28:43;-4.60;85.14
73570;SHT30;61850;54.980;73.298;2023-01-24T00:31:19;-4.58;85.22
73570;SHT30;61850;54.980;73.298;2023-01-24T00:33:45;-4.60;85.19
73570;SHT30;61850;54.980;73.298;2023-01-24T00:36:11;-4.64;85.24
73570;SHT30;61850;54.980;73.298;2023-01-24T00:38:38;-4.64;85.36
73570;SHT30;61850;54.980;73.298;2023-01-24T00:41:04;-4.61;85.35
73570;SHT30;61850;54.980;73.298;2023-01-24T00:43:30;-4.65;85.34
73570;SHT30;61850;54.980;73.298;2023-01-24T00:45:57;-4.67;85.37
73570;SHT30;61850;54.980;73.298;2023-01-24T00:48:23;-4.64;85.40
73570;SHT30;61850;54.980;73.298;2023-01-24T00:50:49;-4.71;85.47
73570;SHT30;61850;54.980;73.298;2023-01-24T00:53:15;-4.62;85.51
73570;SHT30;61850;54.980;73.298;2023-01-24T00:55:44;-4.64;85.40
73570;SHT30;61850;54.980;73.298;2023-01-24T00:58:15;-4.71;85.42
73570;SHT30;61850;54.980;73.298;2023-01-24T01:00:54;-4.71;85.45
73570;SHT30;61850;54.980;73.298;2023-01-24T01:03:26;-4.65;85.48
73570;SHT30;61850;54.980;73.298;2023-01-24T01:05:58;-4.68;85.43
73570;SHT30;61850;54.980;73.298;2023-01-24T01:08:30;-4.67;85.43
73570;SHT30;61850;54.980;73.298;2023-01-24T01:10:57;-4.67;85.43
73570;SHT30;61850;54.980;73.298;2023-01-24T01:13:24;-4.72;85.42
73570;SHT30;61850;54.980;73.298;2023-01-24T01:15:59;-4.68;85.44
73570;SHT30;61850;54.980;73.298;2023-01-24T01:18:25;-4.74;85.35
73570;SHT30;61850;54.980;73.298;2023-01-24T01:20:52;-4.71;85.41
73570;SHT30;61850;54.980;73.298;2023-01-24T01:23:18;-4.72;85.51
73570;SHT30;61850;54.980;73.298;2023-01-24T01:25:44;-4.74;85.54
73570;SHT30;61850;54.980;73.298;2023-01-24T01:28:11;-4.77;85.60
73570;SHT30;61850;54.980;73.298;2023-01-24T01:30:37;-4.74;85.54
73570;SHT30;61850;54.980;73.298;2023-01-24T01:33:04;-4.75;85.48
73570;SHT30;61850;54.980;73.298;2023-01-24T01:35:30;-4.74;85.49
73570;SHT30;61850;54.980;73.298;2023-01-24T01:37:57;-4.72;85.45
73570;SHT30;61850;54.980;73.298;2023-01-24T01:40:29;-4.72;85.41
73570;SHT30;61850;54.980;73.298;2023-01-24T01:42:55;-4.74;85.31
73570;SHT30;61850;54.980;73.298;2023-01-24T01:47:57;-4.75;85.44
73570;SHT30;61850;54.980;73.298;2023-01-24T01:50:35;-4.74;85.49
73570;SHT30;61850;54.980;73.298;2023-01-24T01:53:03;-4.79;85.65
73570;SHT30;61850;54.980;73.298;2023-01-24T01:55:40;-4.79;85.77
73570;SHT30;61850;54.980;73.298;2023-01-24T01:58:13;-4.79;85.79
73570;SHT30;61850;54.980;73.298;2023-01-24T02:00:40;-4.81;85.85
73570;SHT30;61850;54.980;73.298;2023-01-24T02:03:28;-4.77;85.72
73570;SHT30;61850;54.980;73.298;2023-01-24T02:06:23;-4.78;85.64
73570;SHT30;61850;54.980;73.298;2023-01-24T02:08:50;-4.75;85.62
73570;SHT30;61850;54.980;73.298;2023-01-24T02:11:21;-4.77;85.55
73570;SHT30;61850;54.980;73.298;2023-01-24T02:14:06;-4.72;85.43
73570;SHT30;61850;54.980;73.298;2023-01-24T02:16:52;-4.68;85.34
73570;SHT30;61850;54.980;73.298;2023-01-24T02:19:32;-4.75;85.22
73570;SHT30;61850;54.980;73.298;2023-01-24T02:25:08;-4.71;85.28
73570;SHT30;61850;54.980;73.298;2023-01-24T02:27:36;-4.78;85.21
73570;SHT30;61850;54.980;73.298;2023-01-24T02:30:02;-4.74;85.37
73570;SHT30;61850;54.980;73.298;2023-01-24T02:32:28;-4.74;85.27
73570;SHT30;61850;54.980;73.298;2023-01-24T02:34:59;-4.78;85.41
73570;SHT30;61850;54.980;73.298;2023-01-24T02:37:26;-4.79;85.53
73570;SHT30;61850;54.980;73.298;2023-01-24T02:40:02;-4.79;85.47
73570;SHT30;61850;54.980;73.298;2023-01-24T02:42:33;-4.82;85.39
73570;SHT30;61850;54.980;73.298;2023-01-24T02:45:14;-4.79;85.42
73570;SHT30;61850;54.980;73.298;2023-01-24T02:47:46;-4.81;85.49
73570;SHT30;61850;54.980;73.298;2023-01-24T02:50:13;-4.81;85.68
73570;SHT30;61850;54.980;73.298;2023-01-24T02:52:39;-4.72;85.31
73570;SHT30;61850;54.980;73.298;2023-01-24T02:55:24;-4.69;85.07
73570;SHT30;61850;54.980;73.298;2023-01-24T02:57:51;-4.60;84.97
73570;SHT30;61850;54.980;73.298;2023-01-24T03:00:39;-4.67;84.80
73570;SHT30;61850;54.980;73.298;2023-01-24T03:03:07;-4.71;85.05
73570;SHT30;61850;54.980;73.298;2023-01-24T03:05:34;-4.68;84.98
73570;SHT30;61850;54.980;73.298;2023-01-24T03:08:28;-4.65;84.87
73570;SHT30;61850;54.980;73.298;2023-01-24T03:10:56;-4.72;84.97
73570;SHT30;61850;54.980;73.298;2023-01-24T03:13:25;-4.72;85.05
73570;SHT30;61850;54.980;73.298;2023-01-24T03:16:13;-4.72;85.11
73570;SHT30;61850;54.980;73.298;2023-01-24T03:19:04;-4.71;85.15
73570;SHT30;61850;54.980;73.298;2023-01-24T03:21:50;-4.72;85.09
73570;SHT30;61850;54.980;73.298;2023-01-24T03:24:36;-4.72;85.07
73570;SHT30;61850;54.980;73.298;2023-01-24T03:27:26;-4.78;85.24
73570;SHT30;61850;54.980;73.298;2023-01-24T03:30:15;-4.79;85.33
73570;SHT30;61850;54.980;73.298;2023-01-24T03:33:05;-4.82;85.47
73570;SHT30;61850;54.980;73.298;2023-01-24T03:35:59;-4.85;85.57
73570;SHT30;61850;54.980;73.298;2023-01-24T03:38:42;-4.87;85.74
73570;SHT30;61850;54.980;73.298;2023-01-24T03:41:34;-4.85;85.69
73570;SHT30;61850;54.980;73.298;2023-01-24T03:44:02;-4.81;85.47
73570;SHT30;61850;54.980;73.298;2023-01-24T03:46:31;-4.82;85.46
73570;SHT30;61850;54.980;73.298;2023-01-24T03:48:58;-4.84;85.47
73570;SHT30;61850;54.980;73.298;2023-01-24T03:51:33;-4.82;85.43
73570;SHT30;61850;54.980;73.298;2023-01-24T03:54:27;-4.85;85.36
73570;SHT30;61850;54.980;73.298;2023-01-24T03:56:58;-4.87;85.48
73570;SHT30;61850;54.980;73.298;2023-01-24T03:59:26;-4.92;85.63
73570;SHT30;61850;54.980;73.298;2023-01-24T04:01:52;-4.91;85.65
73570;SHT30;61850;54.980;73.298;2023-01-24T04:04:28;-4.91;85.75
73570;SHT30;61850;54.980;73.298;2023-01-24T04:07:15;-4.93;85.61
73570;SHT30;61850;54.980;73.298;2023-01-24T04:09:41;-4.96;85.76
73570;SHT30;61850;54.980;73.298;2023-01-24T04:12:07;-4.96;85.27
73570;SHT30;61850;54.980;73.298;2023-01-24T04:14:34;-4.93;85.47
73570;SHT30;61850;54.980;73.298;2023-01-24T04:17:09;-4.92;85.02
73570;SHT30;61850;54.980;73.298;2023-01-24T04:19:53;-4.89;85.05
73570;SHT30;61850;54.980;73.298;2023-01-24T04:22:20;-4.92;85.21
73570;SHT30;61850;54.980;73.298;2023-01-24T04:24:46;-4.89;85.06
73570;SHT30;61850;54.980;73.298;2023-01-24T04:27:13;-4.85;84.97
73570;SHT30;61850;54.980;73.298;2023-01-24T04:29:50;-4.77;84.76
73570;SHT30;61850;54.980;73.298;2023-01-24T04:32:21;-4.79;84.67
73570;SHT30;61850;54.980;73.298;2023-01-24T04:34:55;-4.77;84.58
73570;SHT30;61850;54.980;73.298;2023-01-24T04:37:51;-4.75;84.70
73570;SHT30;61850;54.980;73.298;2023-01-24T04:40:38;-4.75;84.92
73570;SHT30;61850;54.980;73.298;2023-01-24T04:43:08;-4.79;85.11
73570;SHT30;61850;54.980;73.298;2023-01-24T04:45:34;-4.85;85.30
73570;SHT30;61850;54.980;73.298;2023-01-24T04:48:01;-4.78;85.50
73570;SHT30;61850;54.980;73.298;2023-01-24T04:50:27;-4.77;85.37
73570;SHT30;61850;54.980;73.298;2023-01-24T04:52:54;-4.78;85.46
73570;SHT30;61850;54.980;73.298;2023-01-24T04:55:21;-4.84;85.64
73570;SHT30;61850;54.980;73.298;2023-01-24T04:57:48;-4.82;85.61
73570;SHT30;61850;54.980;73.298;2023-01-24T05:00:15;-4.81;85.76
73570;SHT30;61850;54.980;73.298;2023-01-24T05:02:42;-4.77;85.69
73570;SHT30;61850;54.980;73.298;2023-01-24T05:05:09;-4.77;85.59
73570;SHT30;61850;54.980;73.298;2023-01-24T05:07:36;-4.84;85.78
73570;SHT30;61850;54.980;73.298;2023-01-24T05:10:09;-4.84;85.88
73570;SHT30;61850;54.980;73.298;2023-01-24T05:12:36;-4.79;85.89
73570;SHT30;61850;54.980;73.298;2023-01-24T05:15:09;-4.82;85.91
73570;SHT30;61850;54.980;73.298;2023-01-24T05:17:35;-4.81;86.10
73570;SHT30;61850;54.980;73.298;2023-01-24T05:20:14;-4.85;86.19
73570;SHT30;61850;54.980;73.298;2023-01-24T05:22:50;-4.95;86.48
73570;SHT30;61850;54.980;73.298;2023-01-24T05:25:23;-4.87;86.09
73570;SHT30;61850;54.980;73.298;2023-01-24T05:28:03;-4.98;86.18
73570;SHT30;61850;54.980;73.298;2023-01-24T05:30:35;-4.93;85.99
73570;SHT30;61850;54.980;73.298;2023-01-24T05:33:22;-5.12;85.97
73570;SHT30;61850;54.980;73.298;2023-01-24T05:35:49;-5.22;86.36
73570;SHT30;61850;54.980;73.298;2023-01-24T05:38:22;-5.27;86.63
73570;SHT30;61850;54.980;73.298;2023-01-24T05:40:51;-5.27;86.60
73570;SHT30;61850;54.980;73.298;2023-01-24T05:43:28;-5.26;86.55
73570;SHT30;61850;54.980;73.298;2023-01-24T05:45:57;-5.20;86.59
73570;SHT30;61850;54.980;73.298;2023-01-24T05:48:24;-5.23;86.32
73570;SHT30;61850;54.980;73.298;2023-01-24T05:50:59;-5.33;86.10
73570;SHT30;61850;54.980;73.298;2023-01-24T05:53:37;-5.44;86.27
73570;SHT30;61850;54.980;73.298;2023-01-24T05:56:09;-5.40;86.13
73570;SHT30;61850;54.980;73.298;2023-01-24T05:58:44;-5.43;86.03
73570;SHT30;61850;54.980;73.298;2023-01-24T06:01:15;-5.43;85.76
73570;SHT30;61850;54.980;73.298;2023-01-24T06:03:45;-5.39;85.61
73570;SHT30;61850;54.980;73.298;2023-01-24T06:06:23;-5.33;85.44
73570;SHT30;61850;54.980;73.298;2023-01-24T06:08:50;-5.41;85.21
73570;SHT30;61850;54.980;73.298;2023-01-24T06:11:18;-5.44;85.26
73570;SHT30;61850;54.980;73.298;2023-01-24T06:13:56;-5.43;85.12
73570;SHT30;61850;54.980;73.298;2023-01-24T06:16:25;-5.31;84.84
73570;SHT30;61850;54.980;73.298;2023-01-24T06:18:56;-5.48;84.61
73570;SHT30;61850;54.980;73.298;2023-01-24T06:21:43;-5.40;84.76
73570;SHT30;61850;54.980;73.298;2023-01-24T06:24:23;-5.50;84.80
73570;SHT30;61850;54.980;73.298;2023-01-24T06:27:18;-5.51;84.99
73570;SHT30;61850;54.980;73.298;2023-01-24T06:29:46;-5.47;85.21
73570;SHT30;61850;54.980;73.298;2023-01-24T06:32:17;-5.40;84.72
73570;SHT30;61850;54.980;73.298;2023-01-24T06:40:06;-5.56;84.93
73570;SHT30;61850;54.980;73.298;2023-01-24T06:42:34;-5.66;85.19
73570;SHT30;61850;54.980;73.298;2023-01-24T06:45:00;-5.77;85.92
73570;SHT30;61850;54.980;73.298;2023-01-24T06:47:26;-5.74;85.91
73570;SHT30;61850;54.980;73.298;2023-01-24T06:49:54;-5.78;85.91
73570;SHT30;61850;54.980;73.298;2023-01-24T06:52:21;-5.88;86.00
73570;SHT30;61850;54.980;73.298;2023-01-24T06:54:53;-5.94;86.20
73570;SHT30;61850;54.980;73.298;2023-01-24T06:57:19;-5.79;86.10
73570;SHT30;61850;54.980;73.298;2023-01-24T06:59:50;-5.68;85.88
73570;SHT30;61850;54.980;73.298;2023-01-24T07:02:17;-5.74;85.45
73570;SHT30;61850;54.980;73.298;2023-01-24T07:04:49;-5.77;85.13
73570;SHT30;61850;54.980;73.298;2023-01-24T07:07:15;-5.70;84.85
73570;SHT30;61850;54.980;73.298;2023-01-24T07:09:42;-5.71;84.54
73570;SHT30;61850;54.980;73.298;2023-01-24T07:12:08;-5.85;84.50
73570;SHT30;61850;54.980;73.298;2023-01-24T07:14:44;-5.74;86.04
73570;SHT30;61850;54.980;73.298;2023-01-24T07:17:20;-5.70;84.13
73570;SHT30;61850;54.980;73.298;2023-01-24T07:19:46;-5.74;83.95
73570;SHT30;61850;54.980;73.298;2023-01-24T07:22:14;-5.68;84.12
73570;SHT30;61850;54.980;73.298;2023-01-24T07:24:40;-5.71;84.32
73570;SHT30;61850;54.980;73.298;2023-01-24T07:27:08;-5.82;84.15
73570;SHT30;61850;54.980;73.298;2023-01-24T07:29:43;-5.85;84.34
73570;SHT30;61850;54.980;73.298;2023-01-24T07:32:09;-5.87;84.32
73570;SHT30;61850;54.980;73.298;2023-01-24T07:34:41;-6.02;84.85
73570;SHT30;61850;54.980;73.298;2023-01-24T07:37:13;-5.95;84.52
73570;SHT30;61850;54.980;73.298;2023-01-24T07:39:40;-5.92;84.42
73570;SHT30;61850;54.980;73.298;2023-01-24T07:42:13;-5.79;84.31
73570;SHT30;61850;54.980;73.298;2023-01-24T07:44:39;-5.85;83.91
73570;SHT30;61850;54.980;73.298;2023-01-24T07:47:05;-5.87;83.80
73570;SHT30;61850;54.980;73.298;2023-01-24T07:49:41;-5.81;83.65
73570;SHT30;61850;54.980;73.298;2023-01-24T07:52:07;-5.70;83.77
73570;SHT30;61850;54.980;73.298;2023-01-24T07:54:33;-5.79;83.27
73570;SHT30;61850;54.980;73.298;2023-01-24T07:57:00;-5.88;83.36
73570;SHT30;61850;54.980;73.298;2023-01-24T07:59:26;-5.95;83.34
73570;SHT30;61850;54.980;73.298;2023-01-24T08:02:03;-5.98;83.45
73570;SHT30;61850;54.980;73.298;2023-01-24T08:04:34;-5.98;83.63
73570;SHT30;61850;54.980;73.298;2023-01-24T08:07:10;-6.02;83.84
73570;SHT30;61850;54.980;73.298;2023-01-24T08:09:53;-5.96;83.70
73570;SHT30;61850;54.980;73.298;2023-01-24T08:12:20;-6.02;83.62
73570;SHT30;61850;54.980;73.298;2023-01-24T08:14:50;-6.01;83.88
73570;SHT30;61850;54.980;73.298;2023-01-24T08:17:26;-5.99;84.00
73570;SHT30;61850;54.980;73.298;2023-01-24T08:19:53;-5.94;83.78
73570;SHT30;61850;54.980;73.298;2023-01-24T08:22:19;-6.03;83.89
73570;SHT30;61850;54.980;73.298;2023-01-24T08:24:46;-6.01;84.07
73570;SHT30;61850;54.980;73.298;2023-01-24T08:27:18;-5.92;84.11
73570;SHT30;61850;54.980;73.298;2023-01-24T08:29:45;-5.91;84.30
73570;SHT30;61850;54.980;73.298;2023-01-24T08:32:12;-5.94;84.41
73570;SHT30;61850;54.980;73.298;2023-01-24T08:34:43;-5.94;84.64
73570;SHT30;61850;54.980;73.298;2023-01-24T08:37:14;-6.06;84.66
73570;SHT30;61850;54.980;73.298;2023-01-24T08:39:40;-6.01;84.54
73570;SHT30;61850;54.980;73.298;2023-01-24T08:42:12;-6.05;84.41
73570;SHT30;61850;54.980;73.298;2023-01-24T08:44:38;-6.16;84.63
73570;SHT30;61850;54.980;73.298;2023-01-24T08:47:04;-6.22;84.90
73570;SHT30;61850;54.980;73.298;2023-01-24T08:49:30;-6.10;84.62
73570;SHT30;61850;54.980;73.298;2023-01-24T08:51:56;-6.15;84.64
73570;SHT30;61850;54.980;73.298;2023-01-24T08:54:29;-6.05;84.57
73570;SHT30;61850;54.980;73.298;2023-01-24T08:56:57;-6.15;84.41
73570;SHT30;61850;54.980;73.298;2023-01-24T08:59:23;-6.20;84.65
73570;SHT30;61850;54.980;73.298;2023-01-24T09:02:00;-6.20;84.71
73570;SHT30;61850;54.980;73.298;2023-01-24T09:04:38;-6.17;84.65
73570;SHT30;61850;54.980;73.298;2023-01-24T09:07:05;-6.25;84.84
73570;SHT30;61850;54.980;73.298;2023-01-24T09:09:37;-6.16;84.90
73570;SHT30;61850;54.980;73.298;2023-01-24T09:12:03;-6.05;84.69
73570;SHT30;61850;54.980;73.298;2023-01-24T09:14:32;-6.02;84.66
73570;SHT30;61850;54.980;73.298;2023-01-24T09:16:58;-6.05;84.78
73570;SHT30;61850;54.980;73.298;2023-01-24T09:19:28;-6.10;84.81
73570;SHT30;61850;54.980;73.298;2023-01-24T09:21:54;-6.01;84.94
73570;SHT30;61850;54.980;73.298;2023-01-24T09:24:27;-5.98;84.95
73570;SHT30;61850;54.980;73.298;2023-01-24T09:26:53;-5.91;84.92
73570;SHT30;61850;54.980;73.298;2023-01-24T09:29:27;-5.92;84.96
73570;SHT30;61850;54.980;73.298;2023-01-24T09:31:58;-5.85;85.00
73570;SHT30;61850;54.980;73.298;2023-01-24T09:34:24;-5.81;84.87
73570;SHT30;61850;54.980;73.298;2023-01-24T09:36:52;-5.78;84.83
73570;SHT30;61850;54.980;73.298;2023-01-24T09:39:18;-5.78;84.86
73570;SHT30;61850;54.980;73.298;2023-01-24T09:41:53;-5.81;85.22
73570;SHT30;61850;54.980;73.298;2023-01-24T09:44:24;-5.79;85.11
73570;SHT30;61850;54.980;73.298;2023-01-24T09:47:10;-5.81;85.38
73570;SHT30;61850;54.980;73.298;2023-01-24T09:49:38;-5.77;85.14
73570;SHT30;61850;54.980;73.298;2023-01-24T09:52:06;-5.75;85.02
73570;SHT30;61850;54.980;73.298;2023-01-24T09:57:29;-5.66;84.73
73570;SHT30;61850;54.980;73.298;2023-01-24T10:00:00;-5.70;84.81
73570;SHT30;61850;54.980;73.298;2023-01-24T10:02:30;-5.78;84.79
73570;SHT30;61850;54.980;73.298;2023-01-24T10:05:01;-5.78;84.92
73570;SHT30;61850;54.980;73.298;2023-01-24T10:20:22;-5.91;85.14
73570;SHT30;61850;54.980;73.298;2023-01-24T10:23:15;-5.85;84.96
73570;SHT30;61850;54.980;73.298;2023-01-24T10:25:55;-5.79;84.91
73570;SHT30;61850;54.980;73.298;2023-01-24T10:28:27;-5.81;84.87
73570;SHT30;61850;54.980;73.298;2023-01-24T10:33:51;-5.89;84.51
73570;SHT30;61850;54.980;73.298;2023-01-24T10:39:04;-5.85;84.62
73570;SHT30;61850;54.980;73.298;2023-01-24T10:41:31;-5.81;84.13
73570;SHT30;61850;54.980;73.298;2023-01-24T10:44:23;-5.89;84.07
73570;SHT30;61850;54.980;73.298;2023-01-24T10:46:49;-5.78;84.01
73570;SHT30;61850;54.980;73.298;2023-01-24T10:49:29;-5.81;83.88
73570;SHT30;61850;54.980;73.298;2023-01-24T10:54:51;-5.85;84.26
73570;SHT30;61850;54.980;73.298;2023-01-24T10:59:45;-5.77;83.92
73570;SHT30;61850;54.980;73.298;2023-01-24T11:02:21;-5.77;83.91
73570;SHT30;61850;54.980;73.298;2023-01-24T11:04:58;-5.79;83.70
73570;SHT30;61850;54.980;73.298;2023-01-24T11:07:35;-5.88;83.60
73570;SHT30;61850;54.980;73.298;2023-01-24T11:10:18;-5.92;83.76
73570;SHT30;61850;54.980;73.298;2023-01-24T11:12:52;-5.95;83.72
73570;SHT30;61850;54.980;73.298;2023-01-24T11:15:32;-5.92;83.47
73570;SHT30;61850;54.980;73.298;2023-01-24T11:20:39;-6.05;83.51
73570;SHT30;61850;54.980;73.298;2023-01-24T11:23:20;-6.10;83.47
73570;SHT30;61850;54.980;73.298;2023-01-24T11:25:53;-6.17;83.56
73570;SHT30;61850;54.980;73.298;2023-01-24T11:28:29;-6.26;83.78
73570;SHT30;61850;54.980;73.298;2023-01-24T11:30:57;-6.33;84.18
73570;SHT30;61850;54.980;73.298;2023-01-24T11:35:56;-6.58;84.73
73570;SHT30;61850;54.980;73.298;2023-01-24T11:38:42;-6.71;84.67
73570;SHT30;61850;54.980;73.298;2023-01-24T11:41:14;-6.84;84.75
73570;SHT30;61850;54.980;73.298;2023-01-24T11:57:45;-7.37;84.98
73570;SHT30;61850;54.980;73.298;2023-01-24T12:08:45;-7.57;85.03
73570;SHT30;61850;54.980;73.298;2023-01-24T12:16:55;-7.60;84.99
73570;SHT30;61850;54.980;73.298;2023-01-24T12:19:44;-7.64;85.03
73570;SHT30;61850;54.980;73.298;2023-01-24T12:22:16;-7.61;85.15
73570;SHT30;61850;54.980;73.298;2023-01-24T12:24:44;-7.63;85.08
73570;SHT30;61850;54.980;73.298;2023-01-24T12:27:17;-7.54;84.93
73570;SHT30;61850;54.980;73.298;2023-01-24T12:30:04;-7.60;85.10
73570;SHT30;61850;54.980;73.298;2023-01-24T12:32:37;-7.54;85.17
73570;SHT30;61850;54.980;73.298;2023-01-24T12:35:10;-7.53;85.06
73570;SHT30;61850;54.980;73.298;2023-01-24T12:40:33;-7.44;84.85
73570;SHT30;61850;54.980;73.298;2023-01-24T12:48:42;-7.47;84.68
73570;SHT30;61850;54.980;73.298;2023-01-24T12:54:02;-7.44;84.85
73570;SHT30;61850;54.980;73.298;2023-01-24T12:59:07;-7.29;84.57
73570;SHT30;61850;54.980;73.298;2023-01-24T13:01:58;-7.32;84.42
73570;SHT30;61850;54.980;73.298;2023-01-24T13:04:38;-7.35;84.36
73570;SHT30;61850;54.980;73.298;2023-01-24T13:07:29;-7.40;84.63
73570;SHT30;61850;54.980;73.298;2023-01-24T13:10:03;-7.44;84.66
73570;SHT30;61850;54.980;73.298;2023-01-24T13:12:42;-7.44;84.74
73570;SHT30;61850;54.980;73.298;2023-01-24T13:15:24;-7.48;84.81
73570;SHT30;61850;54.980;73.298;2023-01-24T13:18:06;-7.47;84.73
73570;SHT30;61850;54.980;73.298;2023-01-24T13:26:16;-7.78;84.60
73570;SHT30;61850;54.980;73.298;2023-01-24T13:31:29;-7.98;84.49
73570;SHT30;61850;54.980;73.298;2023-01-24T13:34:02;-8.04;84.25
73570;SHT30;61850;54.980;73.298;2023-01-24T13:36:33;-8.18;84.26
73570;SHT30;61850;54.980;73.298;2023-01-24T13:39:00;-8.30;84.31
73570;SHT30;61850;54.980;73.298;2023-01-24T13:41:37;-8.43;84.51
73570;SHT30;61850;54.980;73.298;2023-01-24T13:52:02;-8.56;84.99
73570;SHT30;61850;54.980;73.298;2023-01-24T13:54:47;-8.56;85.09
73570;SHT30;61850;54.980;73.298;2023-01-24T13:59:42;-8.57;85.29
73570;SHT30;61850;54.980;73.298;2023-01-24T14:02:31;-8.57;85.43
73570;SHT30;61850;54.980;73.298;2023-01-24T14:04:58;-8.54;85.37
73570;SHT30;61850;54.980;73.298;2023-01-24T14:07:29;-8.49;85.37
73570;SHT30;61850;54.980;73.298;2023-01-24T14:09:57;-8.47;85.37
73570;SHT30;61850;54.980;73.298;2023-01-24T14:12:24;-8.44;85.36
73570;SHT30;61850;54.980;73.298;2023-01-24T14:15:03;-8.49;85.40
73570;SHT30;61850;54.980;73.298;2023-01-24T14:20:02;-8.36;85.32
73570;SHT30;61850;54.980;73.298;2023-01-24T14:22:37;-8.37;85.31
73570;SHT30;61850;54.980;73.298;2023-01-24T14:27:54;-8.33;85.55
73570;SHT30;61850;54.980;73.298;2023-01-24T14:35:58;-8.29;85.60
73570;SHT30;61850;54.980;73.298;2023-01-24T14:38:29;-8.30;85.67
73570;SHT30;61850;54.980;73.298;2023-01-24T14:40:56;-8.25;85.55
73570;SHT30;61850;54.980;73.298;2023-01-24T14:43:32;-8.25;85.62
73570;SHT30;61850;54.980;73.298;2023-01-24T14:46:16;-8.16;85.47
73570;SHT30;61850;54.980;73.298;2023-01-24T14:48:49;-8.14;85.38
73570;SHT30;61850;54.980;73.298;2023-01-24T14:51:21;-8.12;85.30
73570;SHT30;61850;54.980;73.298;2023-01-24T14:53:49;-8.12;85.14
73570;SHT30;61850;54.980;73.298;2023-01-24T14:56:15;-8.12;85.15
73570;SHT30;61850;54.980;73.298;2023-01-24T14:58:50;-8.21;85.17
73570;SHT30;61850;54.980;73.298;2023-01-24T15:01:28;-8.22;85.20
73570;SHT30;61850;54.980;73.298;2023-01-24T15:04:19;-8.19;85.16
73570;SHT30;61850;54.980;73.298;2023-01-24T15:07:13;-8.22;84.86
73570;SHT30;61850;54.980;73.298;2023-01-24T15:09:49;-8.32;84.61
73570;SHT30;61850;54.980;73.298;2023-01-24T15:12:29;-8.47;84.25
73570;SHT30;61850;54.980;73.298;2023-01-24T15:14:56;-8.60;84.20
73570;SHT30;61850;54.980;73.298;2023-01-24T15:17:28;-8.61;84.41
73570;SHT30;61850;54.980;73.298;2023-01-24T15:20:08;-8.57;84.44
73570;SHT30;61850;54.980;73.298;2023-01-24T15:22:37;-8.71;84.39
73570;SHT30;61850;54.980;73.298;2023-01-24T15:25:39;-8.73;84.34
73570;SHT30;61850;54.980;73.298;2023-01-24T15:28:21;-8.77;84.47
73570;SHT30;61850;54.980;73.298;2023-01-24T15:30:53;-8.70;84.48
73570;SHT30;61850;54.980;73.298;2023-01-24T15:33:22;-8.70;84.42
73570;SHT30;61850;54.980;73.298;2023-01-24T15:35:50;-8.65;84.37
73570;SHT30;61850;54.980;73.298;2023-01-24T15:49:28;-8.95;84.05
73570;SHT30;61850;54.980;73.298;2023-01-24T15:51:59;-9.07;84.42
73570;SHT30;61850;54.980;73.298;2023-01-24T15:54:26;-9.12;84.51
73570;SHT30;61850;54.980;73.298;2023-01-24T15:56:54;-9.16;84.61
73570;SHT30;61850;54.980;73.298;2023-01-24T15:59:23;-9.15;84.75
73570;SHT30;61850;54.980;73.298;2023-01-24T16:01:49;-9.23;84.56
73570;SHT30;61850;54.980;73.298;2023-01-24T16:04:16;-9.28;84.60
73570;SHT30;61850;54.980;73.298;2023-01-24T16:06:49;-9.33;84.63
73570;SHT30;61850;54.980;73.298;2023-01-24T16:09:20;-9.40;84.63
73570;SHT30;61850;54.980;73.298;2023-01-24T16:11:46;-9.44;84.91
73570;SHT30;61850;54.980;73.298;2023-01-24T16:14:21;-9.44;84.89
73570;SHT30;61850;54.980;73.298;2023-01-24T16:16:50;-9.42;84.87
73570;SHT30;61850;54.980;73.298;2023-01-24T16:19:18;-9.36;84.75
73570;SHT30;61850;54.980;73.298;2023-01-24T16:21:56;-9.40;84.99
73570;SHT30;61850;54.980;73.298;2023-01-24T16:24:27;-9.39;84.92
73570;SHT30;61850;54.980;73.298;2023-01-24T16:27:04;-9.38;84.84
73570;SHT30;61850;54.980;73.298;2023-01-24T16:29:32;-9.35;84.76
73570;SHT30;61850;54.980;73.298;2023-01-24T16:31:59;-9.40;84.90
73570;SHT30;61850;54.980;73.298;2023-01-24T16:34:25;-9.40;84.72
73570;SHT30;61850;54.980;73.298;2023-01-24T16:36:51;-9.44;84.88
73570;SHT30;61850;54.980;73.298;2023-01-24T16:39:27;-9.43;84.76
73570;SHT30;61850;54.980;73.298;2023-01-24T16:41:54;-9.46;84.85
73570;SHT30;61850;54.980;73.298;2023-01-24T16:44:20;-9.56;85.06
73570;SHT30;61850;54.980;73.298;2023-01-24T16:46:49;-9.56;85.00
73570;SHT30;61850;54.980;73.298;2023-01-24T16:49:16;-9.59;84.82
73570;SHT30;61850;54.980;73.298;2023-01-24T16:51:43;-9.54;84.80
73570;SHT30;61850;54.980;73.298;2023-01-24T16:54:14;-9.56;84.88
73570;SHT30;61850;54.980;73.298;2023-01-24T16:56:45;-9.50;84.86
73570;SHT30;61850;54.980;73.298;2023-01-24T16:59:11;-9.62;84.89
73570;SHT30;61850;54.980;73.298;2023-01-24T17:01:39;-9.60;84.85
73570;SHT30;61850;54.980;73.298;2023-01-24T17:04:08;-9.67;85.11
73570;SHT30;61850;54.980;73.298;2023-01-24T17:06:38;-9.66;85.08
73570;SHT30;61850;54.980;73.298;2023-01-24T17:09:04;-9.64;84.81
73570;SHT30;61850;54.980;73.298;2023-01-24T17:11:38;-9.60;84.80
73570;SHT30;61850;54.980;73.298;2023-01-24T17:14:15;-9.62;84.86
73570;SHT30;61850;54.980;73.298;2023-01-24T17:16:42;-9.67;84.62
73570;SHT30;61850;54.980;73.298;2023-01-24T17:19:10;-9.71;84.72
73570;SHT30;61850;54.980;73.298;2023-01-24T17:21:46;-9.74;84.76
73570;SHT30;61850;54.980;73.298;2023-01-24T17:24:12;-9.69;84.74
73570;SHT30;61850;54.980;73.298;2023-01-24T17:26:39;-9.77;84.75
73570;SHT30;61850;54.980;73.298;2023-01-24T17:29:06;-9.82;85.00
73570;SHT30;61850;54.980;73.298;2023-01-24T17:31:37;-9.85;85.04
73570;SHT30;61850;54.980;73.298;2023-01-24T17:34:04;-9.81;85.11
73570;SHT30;61850;54.980;73.298;2023-01-24T17:36:30;-9.87;84.92
73570;SHT30;61850;54.980;73.298;2023-01-24T17:38:56;-9.89;84.98
73570;SHT30;61850;54.980;73.298;2023-01-24T17:41:23;-9.89;85.08
73570;SHT30;61850;54.980;73.298;2023-01-24T17:43:50;-9.90;85.26
73570;SHT30;61850;54.980;73.298;2023-01-24T17:46:26;-9.89;85.06
73570;SHT30;61850;54.980;73.298;2023-01-24T17:48:58;-9.89;84.82
73570;SHT30;61850;54.980;73.298;2023-01-24T17:51:25;-9.90;85.04